Time;durP1;ratioP1;P1;durP2;ratioP2;P2;SDS_P1;SDS_P2;PMS_P1;PMS_P2;Temp;Humidity;BMP_temperature;BMP_pressure;BME280_temperature;BME280_humidity;BME280_pressure;Samples;Min_cycle;Max_cycle;Signal;HPM_P1;HPM_P2
2022/07/11 04:17:42;;;;;;;0.88;0.77;;;20.60;65.30;;;;;;5061835;27;20472;-19
2022/07/11 04:20:08;;;;;;;0.50;0.50;;;20.60;65.80;;;;;;5074018;28;20521;-32
2022/07/11 04:22:34;;;;;;;1.42;0.73;;;20.60;65.80;;;;;;5066924;28;20049;-18
2022/07/11 04:24:59;;;;;;;0.95;0.50;;;20.60;65.90;;;;;;5065379;28;20056;-19
2022/07/11 04:27:25;;;;;;;0.50;0.50;;;20.60;65.80;;;;;;5064139;28;20049;-18
2022/07/11 04:29:51;;;;;;;1.33;0.80;;;20.60;65.90;;;;;;5065369;28;20510;-19
2022/07/11 04:32:16;;;;;;;0.50;0.50;;;20.60;65.90;;;;;;5065353;28;20052;-19
2022/07/11 04:34:42;;;;;;;0.40;0.40;;;20.60;65.80;;;;;;5066638;28;20044;-19
2022/07/11 04:37:08;;;;;;;0.57;0.47;;;20.60;65.90;;;;;;5064857;28;20052;-19
2022/07/11 04:39:33;;;;;;;0.68;0.55;;;20.60;65.90;;;;;;5062454;28;20119;-19
2022/07/11 04:42:00;;;;;;;0.68;0.60;;;20.60;66.00;;;;;;5064967;28;20052;-20
2022/07/11 04:44:26;;;;;;;0.70;0.45;;;20.60;66.00;;;;;;5062899;28;20431;-19
2022/07/11 04:46:52;;;;;;;0.50;0.50;;;20.50;66.00;;;;;;5066225;28;20456;-18
2022/07/11 04:49:18;;;;;;;0.45;0.45;;;20.50;65.90;;;;;;5065524;28;20071;-19
2022/07/11 04:51:44;;;;;;;0.65;0.50;;;20.50;65.80;;;;;;5063949;28;20041;-19
2022/07/11 04:54:10;;;;;;;1.38;0.40;;;20.50;65.90;;;;;;5064783;28;20049;-19
2022/07/11 04:56:35;;;;;;;0.80;0.47;;;20.50;66.00;;;;;;5064807;28;20039;-18
2022/07/11 04:59:01;;;;;;;1.70;0.30;;;20.50;65.90;;;;;;5066400;28;20555;-18
2022/07/11 05:01:28;;;;;;;0.80;0.50;;;20.50;66.10;;;;;;5066120;28;20075;-19
2022/07/11 05:03:54;;;;;;;0.68;0.50;;;20.50;66.30;;;;;;5065818;28;20056;-19
2022/07/11 05:06:20;;;;;;;0.68;0.60;;;20.40;66.40;;;;;;5065992;28;20036;-18
2022/07/11 05:08:45;;;;;;;0.35;0.30;;;20.40;66.50;;;;;;5068776;28;20052;-18
2022/07/11 05:11:11;;;;;;;0.43;0.40;;;20.40;66.60;;;;;;5065964;28;20090;-25
2022/07/11 05:13:37;;;;;;;0.30;0.30;;;20.40;66.80;;;;;;5065919;28;20055;-19
2022/07/11 05:16:03;;;;;;;0.65;0.65;;;20.40;66.70;;;;;;5057228;28;20052;-20
2022/07/11 05:18:28;;;;;;;0.50;0.50;;;20.40;66.70;;;;;;5051797;28;20054;-19
2022/07/11 05:20:55;;;;;;;0.57;0.57;;;20.40;66.90;;;;;;5052684;28;20075;-19
2022/07/11 05:23:20;;;;;;;0.68;0.60;;;20.40;67.00;;;;;;5051345;28;20033;-19
2022/07/11 05:25:46;;;;;;;2.15;0.82;;;20.40;67.10;;;;;;5052568;28;20049;-19
2022/07/11 05:28:11;;;;;;;0.82;0.80;;;20.40;67.30;;;;;;5052457;28;20419;-19
2022/07/11 05:30:37;;;;;;;0.75;0.75;;;20.40;67.30;;;;;;5051908;28;20052;-19
2022/07/11 05:33:03;;;;;;;0.47;0.47;;;20.40;66.80;;;;;;5052433;28;20045;-19
2022/07/11 05:35:28;;;;;;;0.40;0.40;;;20.60;66.50;;;;;;5051836;28;20453;-19
2022/07/11 05:37:54;;;;;;;0.50;0.50;;;20.60;66.20;;;;;;5052176;28;20451;-20
2022/07/11 05:40:20;;;;;;;0.70;0.50;;;20.60;66.30;;;;;;5044717;28;20040;-19
2022/07/11 05:42:45;;;;;;;0.57;0.50;;;20.60;66.10;;;;;;5045219;28;20051;-19
2022/07/11 05:45:11;;;;;;;0.50;0.50;;;20.70;66.00;;;;;;5047360;28;20048;-19
2022/07/11 05:47:37;;;;;;;0.50;0.50;;;20.70;65.90;;;;;;5045723;28;20064;-19
2022/07/11 05:50:03;;;;;;;0.50;0.50;;;20.70;65.70;;;;;;5045972;28;20503;-18
2022/07/11 05:52:28;;;;;;;0.70;0.50;;;20.80;65.70;;;;;;5047263;28;20418;-19
2022/07/11 05:54:54;;;;;;;1.10;0.52;;;20.80;65.50;;;;;;4690198;28;10000290;-19
2022/07/11 05:57:19;;;;;;;0.43;0.32;;;20.80;65.50;;;;;;5039368;28;20045;-19
2022/07/11 05:59:46;;;;;;;0.47;0.47;;;20.80;65.40;;;;;;5041075;28;20049;-19
2022/07/11 06:02:11;;;;;;;0.88;0.50;;;20.80;65.40;;;;;;5041986;28;20045;-19
2022/07/11 06:04:37;;;;;;;1.02;0.60;;;20.80;65.30;;;;;;5042988;28;20118;-18
2022/07/11 06:07:03;;;;;;;0.57;0.57;;;20.90;65.30;;;;;;5041365;28;20473;-19
2022/07/11 06:09:29;;;;;;;0.35;0.30;;;20.90;65.10;;;;;;5041251;28;20040;-19
2022/07/11 06:11:54;;;;;;;0.40;0.40;;;20.90;65.10;;;;;;5042083;28;20075;-18
2022/07/11 06:14:20;;;;;;;0.20;0.20;;;20.90;65.10;;;;;;5041342;28;20065;-19
2022/07/11 06:16:46;;;;;;;0.82;0.70;;;20.90;65.10;;;;;;5041848;28;20842;-19
2022/07/11 06:19:12;;;;;;;0.75;0.40;;;20.90;65.30;;;;;;5041013;28;20033;-19
2022/07/11 06:21:38;;;;;;;0.32;0.32;;;20.90;65.20;;;;;;5040092;28;20052;-18
2022/07/11 06:24:03;;;;;;;1.27;0.60;;;20.90;65.10;;;;;;5043157;28;20033;-18
2022/07/11 06:26:29;;;;;;;1.13;0.50;;;20.90;65.20;;;;;;5036682;28;20051;-18
2022/07/11 06:28:55;;;;;;;0.40;0.40;;;21.00;65.20;;;;;;5041136;28;20041;-19
2022/07/11 06:31:20;;;;;;;0.63;0.52;;;21.00;65.00;;;;;;5038061;28;20088;-19
2022/07/11 06:33:47;;;;;;;1.38;0.70;;;21.00;65.10;;;;;;5043693;28;20090;-20
2022/07/11 06:36:13;;;;;;;0.40;0.30;;;21.00;65.20;;;;;;5041931;28;20098;-20
2022/07/11 06:38:38;;;;;;;0.38;0.38;;;21.00;65.20;;;;;;5043742;28;20057;-20
2022/07/11 06:41:04;;;;;;;1.50;0.30;;;21.00;65.00;;;;;;5045909;28;20056;-21
2022/07/11 06:43:30;;;;;;;0.45;0.45;;;21.00;64.90;;;;;;5043284;28;20552;-20
2022/07/11 06:45:56;;;;;;;0.57;0.47;;;21.00;64.90;;;;;;5045390;28;20045;-20
2022/07/11 06:48:21;;;;;;;0.70;0.45;;;21.10;65.00;;;;;;5044200;28;20033;-22
2022/07/11 06:50:47;;;;;;;0.52;0.52;;;21.10;64.80;;;;;;5043742;28;20053;-21
2022/07/11 06:53:13;;;;;;;1.88;0.57;;;21.10;64.60;;;;;;5046405;28;20029;-20
2022/07/11 06:55:38;;;;;;;0.40;0.40;;;21.10;64.70;;;;;;5045279;28;20095;-20
2022/07/11 06:58:05;;;;;;;0.40;0.40;;;21.10;64.60;;;;;;5046325;28;20039;-20
2022/07/11 07:00:31;;;;;;;0.40;0.40;;;21.10;64.50;;;;;;5041633;28;20535;-20
2022/07/11 07:02:57;;;;;;;0.30;0.30;;;21.10;64.40;;;;;;5044445;28;20037;-20
2022/07/11 07:05:25;;;;;;;0.40;0.40;;;21.10;64.40;;;;;;5044543;28;20715;-20
2022/07/11 07:07:51;;;;;;;0.38;0.35;;;21.10;64.40;;;;;;5044955;28;20053;-20
2022/07/11 07:10:17;;;;;;;0.40;0.40;;;21.10;64.50;;;;;;5042540;28;20040;-20
2022/07/11 07:12:44;;;;;;;0.82;0.45;;;21.10;64.30;;;;;;5043102;28;20044;-20
2022/07/11 07:15:10;;;;;;;0.35;0.35;;;21.20;64.30;;;;;;5044908;28;20040;-20
2022/07/11 07:17:35;;;;;;;0.45;0.40;;;21.10;64.30;;;;;;5040763;28;20037;-20
2022/07/11 07:20:01;;;;;;;1.30;0.77;;;21.20;64.30;;;;;;5045507;28;20045;-20
2022/07/11 07:22:27;;;;;;;0.60;0.60;;;21.20;64.30;;;;;;5044389;28;20396;-20
2022/07/11 07:24:52;;;;;;;0.30;0.30;;;21.20;64.30;;;;;;5040639;28;20049;-20
2022/07/11 07:27:18;;;;;;;0.40;0.40;;;21.20;64.30;;;;;;5043438;28;20052;-20
2022/07/11 07:29:43;;;;;;;0.47;0.47;;;21.20;64.30;;;;;;5042860;28;20051;-21
2022/07/11 07:32:09;;;;;;;0.30;0.30;;;21.20;64.30;;;;;;5042730;28;20061;-20
2022/07/11 07:34:34;;;;;;;0.52;0.45;;;21.20;64.30;;;;;;5046291;28;20569;-25
2022/07/11 07:37:00;;;;;;;0.40;0.40;;;21.20;64.20;;;;;;5040369;28;20060;-20
2022/07/11 07:39:26;;;;;;;0.68;0.50;;;21.20;64.30;;;;;;5043384;28;20095;-20
2022/07/11 07:41:51;;;;;;;0.38;0.38;;;21.20;64.20;;;;;;5045017;28;20045;-20
2022/07/11 07:44:17;;;;;;;0.40;0.40;;;21.20;64.20;;;;;;5045655;28;20041;-26
2022/07/11 07:46:42;;;;;;;0.68;0.40;;;21.20;64.20;;;;;;5045315;28;20139;-20
2022/07/11 07:49:08;;;;;;;0.38;0.30;;;21.20;64.20;;;;;;5043349;28;20494;-20
2022/07/11 07:51:33;;;;;;;1.05;0.30;;;21.20;64.20;;;;;;5044154;28;20044;-20
2022/07/11 07:53:59;;;;;;;0.40;0.40;;;21.20;64.30;;;;;;5042742;28;20107;-19
2022/07/11 07:56:25;;;;;;;0.47;0.47;;;21.20;64.20;;;;;;5043319;28;20115;-19
2022/07/11 07:58:53;;;;;;;0.30;0.30;;;21.20;64.20;;;;;;5044780;28;20451;-20
2022/07/11 08:01:34;;;;;;;0.40;0.38;;;21.20;64.20;;;;;;5046150;28;20043;-20
2022/07/11 08:04:03;;;;;;;0.38;0.38;;;21.30;64.20;;;;;;5040328;28;20051;-19
2022/07/11 08:06:29;;;;;;;0.40;0.40;;;21.20;64.20;;;;;;5042098;28;20099;-19
2022/07/11 08:08:55;;;;;;;0.68;0.40;;;21.30;64.20;;;;;;5044969;28;20048;-20
2022/07/11 08:11:20;;;;;;;0.30;0.30;;;21.30;64.20;;;;;;5041022;28;20107;-20
2022/07/11 08:13:46;;;;;;;0.45;0.40;;;21.30;64.90;;;;;;5043582;28;20102;-20
2022/07/11 08:16:12;;;;;;;0.57;0.47;;;21.20;64.10;;;;;;5043794;28;20041;-19
2022/07/11 08:18:37;;;;;;;0.38;0.38;;;21.30;64.10;;;;;;5043544;28;20124;-19
2022/07/11 08:21:03;;;;;;;0.98;0.45;;;21.30;64.80;;;;;;5043240;28;20116;-20
2022/07/11 08:23:28;;;;;;;0.52;0.40;;;21.30;64.10;;;;;;5043795;28;20029;-20
2022/07/11 08:25:54;;;;;;;0.50;0.50;;;21.30;64.10;;;;;;5043327;28;20041;-19
2022/07/11 08:28:20;;;;;;;0.40;0.40;;;21.30;64.10;;;;;;5042801;28;20044;-19
2022/07/11 08:30:45;;;;;;;0.40;0.40;;;21.30;64.10;;;;;;5041537;28;20055;-19
2022/07/11 08:33:12;;;;;;;0.55;0.52;;;21.30;64.00;;;;;;5043780;28;20037;-19
2022/07/11 08:35:37;;;;;;;0.47;0.47;;;21.30;64.00;;;;;;5042494;28;20041;-19
2022/07/11 08:38:03;;;;;;;0.50;0.50;;;21.40;64.10;;;;;;5042831;28;20056;-19
2022/07/11 08:40:47;;;;;;;0.45;0.45;;;21.30;64.00;;;;;;5044209;28;20200;-19
2022/07/11 08:43:32;;;;;;;0.40;0.40;;;21.40;64.10;;;;;;5043649;28;20234;-19
2022/07/11 08:45:58;;;;;;;0.57;0.57;;;21.40;64.00;;;;;;5038386;28;20048;-28
2022/07/11 08:48:42;;;;;;;0.40;0.40;;;21.40;64.00;;;;;;5042773;28;20044;-19
2022/07/11 08:51:08;;;;;;;0.30;0.30;;;21.40;64.00;;;;;;5044151;28;20033;-19
2022/07/11 08:53:33;;;;;;;0.40;0.40;;;21.40;64.00;;;;;;5046255;28;20057;-19
2022/07/11 08:55:59;;;;;;;0.38;0.30;;;21.40;64.10;;;;;;5046390;28;20045;-20
2022/07/11 08:58:44;;;;;;;0.30;0.30;;;21.40;64.00;;;;;;5046849;28;20041;-19
2022/07/11 09:01:10;;;;;;;0.30;0.30;;;21.40;63.90;;;;;;5046176;28;20128;-19
2022/07/11 09:03:54;;;;;;;0.20;0.20;;;21.40;64.00;;;;;;5046098;28;20172;-20
2022/07/11 09:06:39;;;;;;;;;;;21.40;64.70;;;;;;5045867;28;20048;-19
2022/07/11 09:09:04;;;;;;;0.28;0.28;;;21.40;64.00;;;;;;5045051;28;19924;-19
2022/07/11 09:11:56;;;;;;;0.95;0.40;;;21.40;63.90;;;;;;5048349;28;20037;-19
2022/07/11 09:14:22;;;;;;;0.30;0.30;;;21.40;63.90;;;;;;5046854;28;20060;-19
2022/07/11 09:17:08;;;;;;;0.30;0.30;;;21.40;63.90;;;;;;5047538;28;20090;-19
2022/07/11 09:19:36;;;;;;;0.30;0.30;;;21.40;63.80;;;;;;5047721;28;20044;-19
2022/07/11 09:25:43;;;;;;;0.30;0.30;;;21.40;63.80;;;;;;5042667;28;20099;-19
2022/07/11 09:30:39;;;;;;;0.40;0.30;;;21.50;63.80;;;;;;5044711;28;20048;-19
2022/07/11 09:33:07;;;;;;;0.38;0.38;;;21.50;63.80;;;;;;5045073;28;20106;-19
2022/07/11 09:35:45;;;;;;;0.47;0.47;;;21.50;63.80;;;;;;5044255;28;20044;-20
2022/07/11 09:38:11;;;;;;;0.52;0.52;;;21.50;63.80;;;;;;5044914;28;20095;-23
2022/07/11 09:40:37;;;;;;;0.38;0.32;;;21.50;63.80;;;;;;5046434;28;20111;-19
2022/07/11 09:43:03;;;;;;;0.52;0.30;;;21.50;63.80;;;;;;5045712;28;20502;-19
2022/07/11 09:45:31;;;;;;;0.30;0.30;;;21.50;63.80;;;;;;5045992;28;20510;-19
2022/07/11 09:48:07;;;;;;;0.35;0.35;;;21.50;63.80;;;;;;5045230;28;20045;-19
2022/07/11 09:50:33;;;;;;;0.40;0.40;;;21.50;63.90;;;;;;5043069;28;20514;-19
2022/07/11 09:53:06;;;;;;;0.40;0.40;;;21.50;63.80;;;;;;5045207;28;20084;-19
2022/07/11 09:55:39;;;;;;;0.20;0.20;;;21.50;63.80;;;;;;5045639;28;20038;-19
2022/07/11 10:01:11;;;;;;;0.40;0.40;;;21.50;63.80;;;;;;5042153;28;20571;-19
2022/07/11 10:03:37;;;;;;;;;;;21.50;63.70;;;;;;5045548;28;20385;-19
2022/07/11 10:06:22;;;;;;;1.65;0.22;;;21.60;63.80;;;;;;5044753;28;19991;-23
2022/07/11 10:08:48;;;;;;;0.35;0.35;;;21.60;63.70;;;;;;5044821;28;20048;-25
2022/07/11 10:11:14;;;;;;;0.40;0.40;;;21.60;63.70;;;;;;5045064;28;20103;-24
2022/07/11 10:13:59;;;;;;;0.40;0.40;;;21.60;63.70;;;;;;5046615;28;20037;-25
2022/07/11 10:16:46;;;;;;;0.70;0.40;;;21.60;63.70;;;;;;5042733;28;20045;-28
2022/07/11 10:19:17;;;;;;;0.13;0.13;;;21.60;63.70;;;;;;5043825;28;20139;-23
2022/07/11 10:21:52;;;;;;;1.38;0.22;;;21.60;63.60;;;;;;5023410;28;20068;-24
2022/07/11 10:24:34;;;;;;;0.50;0.40;;;21.60;63.60;;;;;;5042582;28;20053;-23
2022/07/11 10:27:10;;;;;;;0.30;0.30;;;21.60;63.60;;;;;;5041965;28;20025;-24
2022/07/11 10:29:44;;;;;;;0.85;0.20;;;21.60;63.60;;;;;;5041090;28;20107;-26
2022/07/11 10:32:11;;;;;;;0.30;0.30;;;21.60;63.60;;;;;;5027404;28;20050;-25
2022/07/11 10:34:36;;;;;;;0.23;0.23;;;21.60;63.60;;;;;;4690732;28;10001156;-22
2022/07/11 10:37:06;;;;;;;0.60;0.40;;;21.70;63.60;;;;;;5037650;28;20098;-23
2022/07/11 10:39:34;;;;;;;0.35;0.30;;;21.70;63.40;;;;;;5037950;28;20049;-27
2022/07/11 10:42:01;;;;;;;0.60;0.50;;;21.70;63.40;;;;;;5039965;28;20047;-23
2022/07/11 10:44:45;;;;;;;0.20;0.20;;;21.70;63.50;;;;;;5038280;28;20041;-23
2022/07/11 10:47:35;;;;;;;0.30;0.20;;;21.70;63.60;;;;;;5037657;28;20114;-25
2022/07/11 10:50:06;;;;;;;0.25;0.25;;;21.70;63.50;;;;;;5039348;28;20065;-23
2022/07/11 10:52:32;;;;;;;0.20;0.20;;;21.70;63.50;;;;;;5037970;28;20049;-25
2022/07/11 10:55:07;;;;;;;1.30;0.22;;;21.70;63.50;;;;;;5037236;28;20060;-24
2022/07/11 10:57:35;;;;;;;0.52;0.40;;;21.70;63.50;;;;;;5025690;28;20080;-24
2022/07/11 11:00:05;;;;;;;0.73;0.30;;;21.70;63.50;;;;;;5038498;28;20053;-22
2022/07/11 11:02:31;;;;;;;1.33;0.40;;;21.70;63.40;;;;;;5039901;28;20535;-24
2022/07/11 11:04:58;;;;;;;0.28;0.20;;;21.70;63.50;;;;;;5037764;28;20045;-25
2022/07/11 11:07:36;;;;;;;0.82;0.20;;;21.70;63.40;;;;;;5040417;28;20041;-23
2022/07/11 11:10:17;;;;;;;0.25;0.25;;;21.80;63.40;;;;;;5038384;28;20045;-23
2022/07/11 11:13:11;;;;;;;1.65;0.28;;;21.80;63.40;;;;;;5036738;28;20074;-24
2022/07/11 11:15:41;;;;;;;0.40;0.40;;;21.80;63.40;;;;;;5038732;28;20128;-25
2022/07/11 11:18:22;;;;;;;0.30;0.30;;;21.80;63.40;;;;;;5038431;28;20037;-25
2022/07/11 11:21:09;;;;;;;0.30;0.30;;;21.80;63.40;;;;;;5039970;28;20110;-22
2022/07/11 11:23:42;;;;;;;0.30;0.30;;;21.80;63.30;;;;;;5042150;28;20503;-23
2022/07/11 11:26:12;;;;;;;0.65;0.40;;;21.80;63.20;;;;;;5043146;28;20044;-23
2022/07/11 11:28:53;;;;;;;0.20;0.20;;;21.80;63.30;;;;;;5044129;28;20033;-25
2022/07/11 11:31:20;;;;;;;1.00;0.30;;;21.80;63.30;;;;;;5042830;28;20045;-25
2022/07/11 11:33:47;;;;;;;0.32;0.10;;;21.80;63.30;;;;;;5043813;28;20069;-23
2022/07/11 11:36:14;;;;;;;0.25;0.25;;;21.80;63.40;;;;;;5038953;28;20526;-22
2022/07/11 11:38:40;;;;;;;0.30;0.30;;;21.80;63.30;;;;;;5040109;28;20587;-25
2022/07/11 11:41:06;;;;;;;0.52;0.20;;;21.80;63.30;;;;;;5043237;28;20141;-24
2022/07/11 11:43:32;;;;;;;0.30;0.30;;;21.80;63.20;;;;;;5044118;28;20068;-23
2022/07/11 11:45:57;;;;;;;0.30;0.30;;;21.80;63.30;;;;;;5043916;28;20040;-22
2022/07/11 11:48:29;;;;;;;0.20;0.20;;;21.90;63.40;;;;;;5044468;28;20458;-25
2022/07/11 11:51:21;;;;;;;0.20;0.20;;;21.90;63.40;;;;;;5039762;28;20511;-27
2022/07/11 11:53:48;;;;;;;0.90;0.20;;;21.90;63.40;;;;;;5041040;28;20057;-24
2022/07/11 11:56:15;;;;;;;0.30;0.30;;;21.90;63.40;;;;;;5043918;28;20069;-22
2022/07/11 11:58:41;;;;;;;0.45;0.30;;;21.90;63.40;;;;;;5045706;28;20094;-23
2022/07/11 12:01:07;;;;;;;0.60;0.35;;;21.90;63.40;;;;;;5041884;28;20116;-24
2022/07/11 12:03:54;;;;;;;0.22;0.22;;;21.90;63.30;;;;;;5041871;28;20487;-25
2022/07/11 12:06:24;;;;;;;0.35;0.35;;;21.90;63.30;;;;;;5041035;28;20403;-23
2022/07/11 12:08:50;;;;;;;0.22;0.22;;;21.90;63.30;;;;;;5041231;28;20384;-23
2022/07/11 12:11:16;;;;;;;0.40;0.40;;;21.90;63.30;;;;;;5042303;28;20439;-23
2022/07/11 12:13:42;;;;;;;0.10;0.10;;;21.90;63.30;;;;;;5043971;28;20044;-23
2022/07/11 12:19:02;;;;;;;0.20;0.20;;;21.90;63.20;;;;;;5043134;28;20040;-23
2022/07/11 12:21:30;;;;;;;0.20;0.20;;;21.90;63.20;;;;;;5041753;28;20378;-27
2022/07/11 12:24:00;;;;;;;0.52;0.25;;;22.00;63.30;;;;;;5042254;28;20044;-22
2022/07/11 12:26:30;;;;;;;0.20;0.20;;;22.00;64.10;;;;;;5045753;28;20041;-22
2022/07/11 12:29:27;;;;;;;0.30;0.30;;;22.00;63.30;;;;;;5046660;28;20051;-23
2022/07/11 12:31:56;;;;;;;0.20;0.20;;;22.00;63.20;;;;;;5040816;28;20120;-22
2022/07/11 12:34:24;;;;;;;0.30;0.30;;;22.00;63.20;;;;;;5047075;28;20191;-25
2022/07/11 12:36:51;;;;;;;0.20;0.20;;;22.00;63.30;;;;;;5044611;28;20139;-24
2022/07/11 12:39:24;;;;;;;0.20;0.20;;;22.00;63.30;;;;;;5045801;28;20072;-26
2022/07/11 12:41:54;;;;;;;0.20;0.20;;;22.00;63.20;;;;;;5047586;28;20044;-23
2022/07/11 12:47:07;;;;;;;0.20;0.20;;;22.00;63.20;;;;;;5046734;28;20064;-22
2022/07/11 12:49:33;;;;;;;0.30;0.20;;;22.00;63.20;;;;;;5045912;28;20045;-28
2022/07/11 12:52:00;;;;;;;0.10;0.10;;;22.00;63.20;;;;;;5045290;28;20037;-23
2022/07/11 12:54:33;;;;;;;0.45;0.30;;;22.10;63.20;;;;;;5046740;28;20079;-24
2022/07/11 12:57:01;;;;;;;0.10;0.10;;;22.00;63.20;;;;;;5041794;28;20051;-23
2022/07/11 12:59:27;;;;;;;0.10;0.10;;;22.10;63.20;;;;;;5047419;28;20047;-30
2022/07/11 13:02:08;;;;;;;0.20;0.20;;;22.10;63.20;;;;;;5047940;28;20037;-23
2022/07/11 13:04:47;;;;;;;0.30;0.20;;;22.10;63.20;;;;;;5049580;28;20052;-29
2022/07/11 13:10:15;;;;;;;0.17;0.17;;;22.10;63.20;;;;;;5048121;28;20523;-24
2022/07/11 13:12:41;;;;;;;0.20;0.20;;;22.10;63.10;;;;;;5046811;28;20052;-22
2022/07/11 13:15:10;;;;;;;0.10;0.10;;;22.10;63.20;;;;;;5045480;28;20040;-23
2022/07/11 13:17:38;;;;;;;0.25;0.25;;;22.10;63.20;;;;;;5045815;28;20083;-23
2022/07/11 13:20:14;;;;;;;0.20;0.20;;;22.10;63.20;;;;;;5044540;28;20041;-23
2022/07/11 13:22:43;;;;;;;0.20;0.20;;;22.10;63.20;;;;;;5047208;28;20053;-24
2022/07/11 13:25:10;;;;;;;0.10;0.10;;;22.10;63.20;;;;;;5044669;28;20041;-22
2022/07/11 13:27:36;;;;;;;0.20;0.20;;;22.10;63.20;;;;;;5046202;28;20170;-23
2022/07/11 13:30:09;;;;;;;0.28;0.28;;;22.10;63.20;;;;;;5046057;28;20568;-24
2022/07/11 13:32:35;;;;;;;0.20;0.20;;;22.10;63.20;;;;;;5043863;28;20055;-23
2022/07/11 13:35:00;;;;;;;0.45;0.28;;;22.20;63.20;;;;;;5047214;28;20049;-25
2022/07/11 13:37:26;;;;;;;0.30;0.30;;;22.10;63.20;;;;;;5046332;28;20502;-24
2022/07/11 13:39:51;;;;;;;0.25;0.25;;;22.20;63.20;;;;;;5046385;28;20036;-21
2022/07/11 13:42:17;;;;;;;0.30;0.30;;;22.20;63.20;;;;;;5046186;28;20049;-23
2022/07/11 13:44:42;;;;;;;0.30;0.30;;;22.20;63.10;;;;;;5046472;28;20075;-22
2022/07/11 13:47:08;;;;;;;0.20;0.20;;;22.20;63.20;;;;;;5045530;28;20033;-25
2022/07/11 13:49:33;;;;;;;0.20;0.20;;;22.20;63.20;;;;;;5047645;28;20518;-35
2022/07/11 13:51:59;;;;;;;0.20;0.20;;;22.20;63.20;;;;;;5045263;28;20139;-22
2022/07/11 13:54:25;;;;;;;0.20;0.20;;;22.20;63.20;;;;;;5046548;28;20099;-22
2022/07/11 13:56:50;;;;;;;0.20;0.20;;;22.20;63.20;;;;;;5046483;28;20049;-22
2022/07/11 13:59:16;;;;;;;0.30;0.30;;;22.20;63.10;;;;;;5044479;28;20060;-26
2022/07/11 14:01:41;;;;;;;0.10;0.10;;;22.20;63.10;;;;;;5045366;28;20513;-23
2022/07/11 14:04:07;;;;;;;0.20;0.20;;;22.20;63.20;;;;;;5047037;28;20045;-23
2022/07/11 14:06:33;;;;;;;0.20;0.20;;;22.20;63.10;;;;;;5044979;28;21052;-24
2022/07/11 14:08:59;;;;;;;0.15;0.15;;;22.20;63.20;;;;;;5045774;28;20630;-23
2022/07/11 14:11:24;;;;;;;0.20;0.20;;;22.20;63.10;;;;;;5045030;28;20515;-23
2022/07/11 14:13:50;;;;;;;0.13;0.10;;;22.30;63.20;;;;;;5048404;28;20120;-22
2022/07/11 14:16:18;;;;;;;0.20;0.20;;;22.30;63.20;;;;;;5042228;28;20045;-25
2022/07/11 14:18:43;;;;;;;0.10;0.10;;;22.30;63.20;;;;;;5044202;28;20458;-24
2022/07/11 14:21:09;;;;;;;0.10;0.10;;;22.30;63.20;;;;;;5043238;28;20032;-28
2022/07/11 14:23:34;;;;;;;0.20;0.20;;;22.30;63.20;;;;;;5045310;28;20040;-23
2022/07/11 14:26:00;;;;;;;0.20;0.20;;;22.30;63.10;;;;;;5045183;28;20067;-23
2022/07/11 14:28:26;;;;;;;0.45;0.30;;;22.30;63.10;;;;;;5047286;28;20411;-22
2022/07/11 14:30:52;;;;;;;0.90;0.13;;;22.30;63.10;;;;;;5043144;28;20036;-23
2022/07/11 14:33:17;;;;;;;0.30;0.13;;;22.30;63.20;;;;;;5043217;28;20133;-23
2022/07/11 14:35:43;;;;;;;0.25;0.25;;;22.30;63.20;;;;;;5044398;28;20036;-24
2022/07/11 14:38:08;;;;;;;0.10;0.10;;;22.30;63.10;;;;;;5046816;28;20262;-23
2022/07/11 14:40:34;;;;;;;0.30;0.30;;;22.30;63.10;;;;;;5045702;28;20045;-22
2022/07/11 14:42:59;;;;;;;0.10;0.10;;;22.30;63.10;;;;;;5043488;28;20090;-22
2022/07/11 14:45:25;;;;;;;0.10;0.10;;;22.30;63.10;;;;;;5044938;28;20064;-22
2022/07/11 14:47:51;;;;;;;0.20;0.15;;;22.40;63.10;;;;;;5044547;28;20067;-24
2022/07/11 14:50:16;;;;;;;0.20;0.20;;;22.40;63.10;;;;;;5041771;28;20184;-23
2022/07/11 14:52:43;;;;;;;0.13;0.13;;;22.40;63.20;;;;;;5046705;28;20045;-23
2022/07/11 14:55:09;;;;;;;0.20;0.10;;;22.40;63.20;;;;;;5044319;28;20037;-24
2022/07/11 14:57:35;;;;;;;0.30;0.22;;;22.40;63.10;;;;;;5044920;28;20068;-28
2022/07/11 15:00:01;;;;;;;0.10;0.10;;;22.40;63.10;;;;;;5043262;28;20036;-24
2022/07/11 15:05:11;;;;;;;0.10;0.10;;;22.40;63.10;;;;;;5043036;28;20060;-38
2022/07/11 15:13:05;;;;;;;0.20;0.10;;;22.50;63.20;;;;;;5043797;28;20056;-24
2022/07/11 15:15:30;;;;;;;0.10;0.10;;;22.40;63.10;;;;;;5043721;28;20054;-25
2022/07/11 15:17:56;;;;;;;0.30;0.10;;;22.40;63.10;;;;;;5043110;28;20037;-24
2022/07/11 15:20:22;;;;;;;0.13;0.13;;;22.40;63.10;;;;;;5042205;28;20460;-23
2022/07/11 15:22:47;;;;;;;0.10;0.10;;;22.50;63.20;;;;;;5046634;28;20045;-23
2022/07/11 15:25:15;;;;;;;0.10;0.10;;;22.50;63.10;;;;;;5044763;28;20531;-23
2022/07/11 15:27:41;;;;;;;0.10;0.10;;;22.50;63.10;;;;;;5041222;28;20048;-23
2022/07/11 15:30:07;;;;;;;0.20;0.20;;;22.50;63.20;;;;;;5043023;28;20049;-26
2022/07/11 15:32:33;;;;;;;0.10;0.10;;;22.50;63.20;;;;;;5043379;28;20092;-26
2022/07/11 15:34:58;;;;;;;0.10;0.10;;;22.50;63.10;;;;;;5043015;28;20455;-23
2022/07/11 15:37:24;;;;;;;0.10;0.10;;;22.50;63.20;;;;;;5043115;28;20098;-25
2022/07/11 15:39:49;;;;;;;0.10;0.10;;;22.50;63.00;;;;;;5043309;28;20549;-25
2022/07/11 15:42:15;;;;;;;0.22;0.22;;;22.50;63.20;;;;;;5043063;28;20074;-22
2022/07/11 15:44:40;;;;;;;0.20;0.10;;;22.50;63.10;;;;;;5042597;28;20052;-23
2022/07/11 15:47:06;;;;;;;0.10;0.10;;;22.50;63.10;;;;;;5043946;28;20078;-23
2022/07/11 15:49:32;;;;;;;0.10;0.10;;;22.50;63.10;;;;;;5044192;28;20515;-23
2022/07/11 15:51:57;;;;;;;0.20;0.20;;;22.60;63.20;;;;;;5043904;28;20041;-22
2022/07/11 15:54:23;;;;;;;0.20;0.20;;;22.60;63.10;;;;;;5040682;28;20065;-22
2022/07/11 15:56:48;;;;;;;0.10;0.10;;;22.60;63.10;;;;;;5043866;28;20067;-23
2022/07/11 15:59:15;;;;;;;0.38;0.20;;;22.60;63.90;;;;;;5041852;28;20450;-22
2022/07/11 16:01:40;;;;;;;0.10;0.10;;;22.60;63.10;;;;;;5043530;28;20025;-23
2022/07/11 16:04:06;;;;;;;0.10;0.10;;;22.60;63.00;;;;;;5042802;28;20056;-25
2022/07/11 16:06:33;;;;;;;0.10;0.10;;;22.60;63.10;;;;;;5042981;28;20419;-19
2022/07/11 16:08:59;;;;;;;0.13;0.13;;;22.60;63.10;;;;;;5041277;28;20049;-20
2022/07/11 16:11:25;;;;;;;0.10;0.10;;;22.60;63.00;;;;;;5041403;28;20076;-19
2022/07/11 16:13:51;;;;;;;1.75;0.20;;;22.60;63.90;;;;;;5043781;28;20037;-20
2022/07/11 16:16:19;;;;;;;0.10;0.10;;;22.60;63.00;;;;;;5042500;28;20041;-19
2022/07/11 16:18:44;;;;;;;0.20;0.20;;;22.60;63.00;;;;;;5042252;28;20091;-28
2022/07/11 16:21:10;;;;;;;0.17;0.10;;;22.70;63.00;;;;;;5041192;28;20040;-19
2022/07/11 16:23:35;;;;;;;0.10;0.10;;;22.60;63.00;;;;;;5041572;28;20507;-19
2022/07/11 16:26:01;;;;;;;0.10;0.10;;;22.60;63.00;;;;;;5043458;28;20143;-19
2022/07/11 16:28:27;;;;;;;0.10;0.10;;;22.70;63.00;;;;;;5044725;28;20052;-19
2022/07/11 16:30:52;;;;;;;0.10;0.10;;;22.70;63.00;;;;;;5040740;28;20503;-19
2022/07/11 16:33:18;;;;;;;0.00;0.00;;;22.70;63.00;;;;;;5041215;28;20037;-19
2022/07/11 16:35:43;;;;;;;0.15;0.15;;;22.70;63.00;;;;;;5039712;28;20456;-19
2022/07/11 16:38:09;;;;;;;0.13;0.13;;;22.70;63.00;;;;;;5043495;28;20056;-19
2022/07/11 16:43:23;;;;;;;0.08;0.08;;;22.70;63.00;;;;;;5043064;28;20048;-19
2022/07/11 16:45:55;;;;;;;0.10;0.03;;;22.70;63.00;;;;;;5043163;28;20068;-19
2022/07/11 16:48:25;;;;;;;0.10;0.10;;;22.70;63.10;;;;;;5041475;28;20044;-19
2022/07/11 16:50:51;;;;;;;0.10;0.10;;;22.70;63.00;;;;;;5043537;28;20033;-21
2022/07/11 16:53:18;;;;;;;0.00;0.00;;;22.80;63.20;;;;;;5043162;28;20503;-20
2022/07/11 16:55:44;;;;;;;0.05;0.05;;;22.80;63.20;;;;;;5039428;28;20408;-19
2022/07/11 16:58:09;;;;;;;0.10;0.10;;;22.80;63.20;;;;;;4687580;28;10000061;-19
2022/07/11 17:00:35;;;;;;;0.10;0.10;;;22.70;63.10;;;;;;5035209;28;20103;-19
2022/07/11 17:03:03;;;;;;;0.28;0.20;;;22.80;63.30;;;;;;5039338;28;20076;-19
2022/07/11 17:05:29;;;;;;;0.30;0.10;;;22.80;63.20;;;;;;5038256;28;20056;-19
2022/07/11 17:10:38;;;;;;;0.55;0.10;;;22.80;63.30;;;;;;5037286;28;20071;-19
2022/07/11 17:13:04;;;;;;;0.20;0.20;;;22.80;63.40;;;;;;5040074;28;20052;-28
2022/07/11 17:15:29;;;;;;;0.00;0.00;;;22.80;63.30;;;;;;5041259;28;20045;-19
2022/07/11 17:17:55;;;;;;;0.10;0.10;;;22.80;63.40;;;;;;5041958;28;20049;-19
2022/07/11 17:20:21;;;;;;;0.10;0.10;;;22.80;63.40;;;;;;5041644;28;20045;-19
2022/07/11 17:22:46;;;;;;;0.20;0.20;;;22.80;63.40;;;;;;5043474;28;20060;-19
2022/07/11 17:25:12;;;;;;;0.00;0.00;;;22.80;63.40;;;;;;5040771;28;20048;-20
2022/07/11 17:27:42;;;;;;;0.00;0.00;;;22.80;63.60;;;;;;5041258;28;20053;-19
2022/07/11 17:30:11;;;;;;;0.10;0.10;;;22.80;63.60;;;;;;5042332;28;20044;-19
2022/07/11 17:32:37;;;;;;;0.20;0.10;;;22.80;64.40;;;;;;5042659;28;20530;-19
2022/07/11 17:35:04;;;;;;;0.10;0.10;;;22.90;63.70;;;;;;5040564;28;20075;-19
2022/07/11 17:37:30;;;;;;;0.20;0.20;;;22.90;63.80;;;;;;5038740;28;20484;-19
2022/07/11 17:39:55;;;;;;;0.10;0.10;;;22.90;63.80;;;;;;5042784;28;20040;-19